createdAt,value
2017-12-08T00:00:38.422Z,14.93
2017-12-08T00:03:07.494Z,14.50
2017-12-08T00:05:40.226Z,13.83
2017-12-08T00:08:09.178Z,13.83
2017-12-08T00:10:39.160Z,14.57
2017-12-08T00:13:08.471Z,14.10
2017-12-08T00:15:37.462Z,15.47
2017-12-08T00:18:06.507Z,14.73
2017-12-08T00:20:35.550Z,14.20
2017-12-08T00:23:04.543Z,14.33
2017-12-08T00:25:33.486Z,14.17
2017-12-08T00:28:02.437Z,15.00
2017-12-08T00:30:32.476Z,15.67
2017-12-08T00:33:02.366Z,16.27
2017-12-08T00:35:31.296Z,14.93
2017-12-08T00:38:00.353Z,16.30
2017-12-08T00:40:29.406Z,16.03
2017-12-08T00:42:58.391Z,15.77
2017-12-08T00:45:27.448Z,16.50
2017-12-08T00:47:56.382Z,16.73
2017-12-08T00:50:29.984Z,16.50
2017-12-08T00:52:58.943Z,17.07
2017-12-08T00:55:27.918Z,18.13
2017-12-08T00:57:56.893Z,18.20
2017-12-08T01:00:25.868Z,18.53
2017-12-08T01:03:04.931Z,18.40
2017-12-08T01:05:51.338Z,19.67
2017-12-08T01:08:33.098Z,17.10
2017-12-08T01:11:02.080Z,18.63
2017-12-08T01:13:30.988Z,18.13
2017-12-08T01:16:01.966Z,17.83
2017-12-08T01:18:30.964Z,17.43
2017-12-08T01:21:01.876Z,19.07
2017-12-08T01:23:30.780Z,18.93
2017-12-08T01:26:07.451Z,19.60
2017-12-08T01:28:36.396Z,20.10
2017-12-08T01:31:08.896Z,20.53
2017-12-08T01:33:37.827Z,19.63
2017-12-08T01:36:06.830Z,19.00
2017-12-08T01:38:35.866Z,19.13
2017-12-08T01:41:04.808Z,17.70
2017-12-08T01:43:47.734Z,16.30
2017-12-08T01:46:16.679Z,16.60
2017-12-08T01:48:51.362Z,18.07
2017-12-08T01:51:20.309Z,16.67
2017-12-08T01:53:56.442Z,16.43
2017-12-08T01:56:25.368Z,17.10
2017-12-08T01:59:01.824Z,17.10
2017-12-08T02:01:31.782Z,16.80
2017-12-08T02:04:00.722Z,17.57
2017-12-08T02:06:29.751Z,17.97
2017-12-08T02:09:04.492Z,17.70
2017-12-08T02:11:33.464Z,18.93
2017-12-08T02:14:02.412Z,17.83
2017-12-08T02:16:31.336Z,18.93
2017-12-08T02:19:00.310Z,19.47
2017-12-08T02:21:30.217Z,19.80
2017-12-08T02:23:59.142Z,20.50
2017-12-08T02:26:28.114Z,20.43
2017-12-08T02:28:57.049Z,20.60
2017-12-08T02:31:25.982Z,20.73
2017-12-08T02:33:56.998Z,21.57
2017-12-08T02:36:25.918Z,19.90
2017-12-08T02:38:55.872Z,21.80
2017-12-08T02:41:24.803Z,19.97
2017-12-08T02:43:58.141Z,20.23
2017-12-08T02:46:27.094Z,20.43
2017-12-08T02:48:57.984Z,20.50
2017-12-08T02:51:27.932Z,20.60
2017-12-08T02:53:56.944Z,17.77
2017-12-08T02:56:25.852Z,18.73
2017-12-08T02:58:54.842Z,19.10
2017-12-08T03:01:24.692Z,17.37
2017-12-08T03:03:53.613Z,19.20
2017-12-08T03:06:22.564Z,19.53
2017-12-08T03:08:51.499Z,20.57
2017-12-08T03:11:20.415Z,19.73
2017-12-08T03:13:49.428Z,19.87
2017-12-08T03:16:18.390Z,18.77
2017-12-08T03:18:47.326Z,21.87
2017-12-08T03:21:16.314Z,21.90
2017-12-08T03:23:45.288Z,23.10
2017-12-08T03:26:16.260Z,23.50
2017-12-08T03:28:45.184Z,20.77
2017-12-08T03:31:17.309Z,22.60
2017-12-08T03:33:51.896Z,21.43
2017-12-08T03:36:20.835Z,21.37
2017-12-08T03:38:50.738Z,19.17
2017-12-08T03:41:19.658Z,20.67
2017-12-08T03:43:48.606Z,20.27
2017-12-08T03:46:18.523Z,19.40
2017-12-08T03:48:47.436Z,20.40
2017-12-08T03:51:16.389Z,20.60
2017-12-08T03:53:47.272Z,21.90
2017-12-08T03:56:16.202Z,20.77
2017-12-08T03:58:49.870Z,22.33
2017-12-08T04:01:18.824Z,24.77
2017-12-08T04:03:48.782Z,26.43
2017-12-08T04:06:19.772Z,28.90
2017-12-08T04:08:48.684Z,33.33
2017-12-08T04:11:19.601Z,31.93
2017-12-08T04:13:48.558Z,31.37
2017-12-08T04:16:17.464Z,31.60
2017-12-08T04:18:47.405Z,31.63
2017-12-08T04:21:16.360Z,33.87
2017-12-08T04:23:49.192Z,29.63
2017-12-08T04:26:18.102Z,28.90
2017-12-08T04:28:47.039Z,28.00
2017-12-08T04:31:18.348Z,29.57
2017-12-08T04:33:47.283Z,30.07
2017-12-08T04:36:22.926Z,28.67
2017-12-08T04:38:54.932Z,28.50
2017-12-08T04:41:25.888Z,27.43
2017-12-08T04:43:54.819Z,28.10
2017-12-08T04:46:30.300Z,28.20
2017-12-08T04:48:59.209Z,28.97
2017-12-08T04:51:31.916Z,29.07
2017-12-08T04:54:00.826Z,29.63
2017-12-08T04:56:29.794Z,77.70
2017-12-08T04:58:59.724Z,129.00
2017-12-08T05:01:28.666Z,101.73
2017-12-08T05:04:09.939Z,68.37
2017-12-08T05:06:38.880Z,52.83
2017-12-08T05:09:09.844Z,53.20
2017-12-08T05:11:38.763Z,54.73
2017-12-08T05:14:07.699Z,49.93
2017-12-08T05:16:37.686Z,53.57
2017-12-08T05:19:07.636Z,48.80
2017-12-08T05:21:38.612Z,45.10
2017-12-08T05:24:07.600Z,44.17
2017-12-08T05:26:38.604Z,45.13
2017-12-08T05:29:10.925Z,37.23
2017-12-08T05:31:41.894Z,34.20
2017-12-08T05:34:10.864Z,26.47
2017-12-08T05:36:39.792Z,28.10
2017-12-08T05:39:08.798Z,36.97
2017-12-08T05:41:39.685Z,42.63
2017-12-08T05:44:08.629Z,63.13
2017-12-08T05:46:37.578Z,77.40
2017-12-08T05:49:06.506Z,119.33
2017-12-08T05:51:35.504Z,93.33
2017-12-08T05:54:04.420Z,83.33
2017-12-08T05:56:33.376Z,81.87
2017-12-08T05:59:02.414Z,93.13
2017-12-08T06:01:36.083Z,89.77
2017-12-08T06:04:05.033Z,78.67
2017-12-08T06:06:34.990Z,68.40
2017-12-08T06:09:03.936Z,55.90
2017-12-08T06:11:33.930Z,48.13
2017-12-08T06:14:02.884Z,55.13
2017-12-08T06:16:31.782Z,50.20
2017-12-08T06:19:00.688Z,52.40
2017-12-08T06:21:29.584Z,52.97
2017-12-08T06:23:59.502Z,51.80
2017-12-08T06:26:28.418Z,54.63
2017-12-08T06:28:57.308Z,60.43
2017-12-08T06:31:29.995Z,86.77
2017-12-08T06:33:58.947Z,104.30
2017-12-08T06:36:27.794Z,110.63
2017-12-08T06:39:07.962Z,134.23
2017-12-08T06:41:36.870Z,125.87
2017-12-08T06:44:10.666Z,106.60
2017-12-08T06:46:40.528Z,82.67
2017-12-08T06:49:14.671Z,77.37
2017-12-08T06:51:45.581Z,72.10
2017-12-08T06:54:31.902Z,85.10
2017-12-08T06:57:10.862Z,80.47
2017-12-08T06:59:44.669Z,90.27
2017-12-08T07:02:15.588Z,95.70
2017-12-08T07:04:44.516Z,99.97
2017-12-08T07:07:30.694Z,110.87
2017-12-08T07:10:13.913Z,114.20
2017-12-08T07:12:49.768Z,97.10
2017-12-08T07:15:24.630Z,94.03
2017-12-08T07:17:53.516Z,79.30
2017-12-08T07:20:39.293Z,84.93
2017-12-08T07:23:16.385Z,71.57
2017-12-08T07:25:45.288Z,68.13
2017-12-08T07:28:24.114Z,66.87
2017-12-08T07:30:53.052Z,72.10
2017-12-08T07:33:21.943Z,67.33
2017-12-08T07:35:50.857Z,67.97
2017-12-08T07:38:37.845Z,66.80
2017-12-08T07:41:23.498Z,62.97
2017-12-08T07:43:52.416Z,57.07
2017-12-08T07:46:29.197Z,57.37
2017-12-08T07:49:03.074Z,58.37
2017-12-08T07:51:31.981Z,57.67
2017-12-08T07:56:55.690Z,49.47
2017-12-08T07:59:24.685Z,45.20
2017-12-08T08:01:53.903Z,41.23
2017-12-08T08:04:39.253Z,40.77
2017-12-08T08:10:03.818Z,42.63
2017-12-08T08:12:32.695Z,38.07
2017-12-08T08:15:03.609Z,34.73
2017-12-08T08:17:32.573Z,31.47
2017-12-08T08:20:01.455Z,29.50
2017-12-08T08:22:30.337Z,27.90
2017-12-08T08:25:00.051Z,27.67
2017-12-08T08:27:28.951Z,26.30
2017-12-08T08:29:57.887Z,26.63
2017-12-08T08:32:39.705Z,27.13
2017-12-08T08:35:25.393Z,26.47
2017-12-08T08:38:09.072Z,27.53
2017-12-08T08:40:38.946Z,26.63
2017-12-08T08:43:11.859Z,26.37
2017-12-08T08:45:48.326Z,28.33
2017-12-08T08:48:17.254Z,26.80
2017-12-08T08:50:46.174Z,25.10
2017-12-08T08:53:15.065Z,25.73
2017-12-08T08:55:43.961Z,25.77
2017-12-08T08:58:12.884Z,26.03
2017-12-08T09:00:41.737Z,26.87
2017-12-08T09:03:10.695Z,27.03
2017-12-08T09:05:53.093Z,26.83
2017-12-08T09:08:34.670Z,26.43
2017-12-08T09:25:13.143Z,22.63
2017-12-08T09:27:42.068Z,24.57
2017-12-08T09:30:10.945Z,24.30
2017-12-08T09:32:39.874Z,25.57
2017-12-08T09:35:08.777Z,24.67
2017-12-08T09:37:37.659Z,24.97
2017-12-08T09:40:06.588Z,24.63
2017-12-08T09:42:45.121Z,24.17
2017-12-08T09:45:26.490Z,25.50
2017-12-08T09:48:05.983Z,23.33
2017-12-08T09:50:34.911Z,23.23
2017-12-08T09:53:17.957Z,24.17
2017-12-08T09:58:53.434Z,25.47
2017-12-08T10:04:13.549Z,24.40
2017-12-08T10:09:47.648Z,24.63
2017-12-08T10:20:44.119Z,24.80
2017-12-08T10:23:13.019Z,22.47
2017-12-08T10:25:41.919Z,22.17
2017-12-08T10:31:04.475Z,24.73
2017-12-08T10:33:33.379Z,26.20
2017-12-08T10:36:07.028Z,26.90
2017-12-08T10:38:35.951Z,24.70
2017-12-08T10:41:04.830Z,27.20
2017-12-08T10:43:37.222Z,34.20
2017-12-08T10:46:06.106Z,37.07
2017-12-08T10:48:34.995Z,34.30
2017-12-08T10:51:07.691Z,30.50
2017-12-08T10:53:36.620Z,30.60
2017-12-08T10:56:05.512Z,30.23
2017-12-08T10:58:35.429Z,30.30
2017-12-08T11:01:04.313Z,28.50
2017-12-08T11:03:33.213Z,28.07
2017-12-08T11:06:02.165Z,27.13
2017-12-08T11:08:34.755Z,25.93
2017-12-08T11:11:03.691Z,25.60
2017-12-08T11:13:32.577Z,25.47
2017-12-08T11:16:08.744Z,26.00
2017-12-08T11:18:37.633Z,25.83
2017-12-08T11:21:06.514Z,24.70
2017-12-08T11:23:35.436Z,24.93
2017-12-08T11:26:14.749Z,26.70
2017-12-08T11:28:58.293Z,26.80
2017-12-08T11:31:30.559Z,27.87
2017-12-08T11:33:59.485Z,26.53
2017-12-08T11:36:28.364Z,28.53
2017-12-08T11:38:57.257Z,28.27
2017-12-08T11:41:26.164Z,27.63
2017-12-08T11:44:02.462Z,26.40
2017-12-08T11:46:31.441Z,27.30
2017-12-08T11:49:00.323Z,26.27
2017-12-08T11:51:29.205Z,27.40
2017-12-08T11:53:58.130Z,25.90
2017-12-08T11:56:27.018Z,38.80
2017-12-08T11:58:55.903Z,28.07
2017-12-08T12:01:24.824Z,26.80
2017-12-08T12:03:53.718Z,28.43
2017-12-08T12:06:30.409Z,28.73
2017-12-08T12:09:06.111Z,42.03
2017-12-08T12:11:35.027Z,28.93
2017-12-08T12:14:03.911Z,30.97
2017-12-08T12:16:32.827Z,32.97
2017-12-08T12:19:01.753Z,31.77
2017-12-08T12:21:30.676Z,32.90
2017-12-08T12:23:59.563Z,31.00
2017-12-08T12:26:28.489Z,36.73
2017-12-08T12:28:57.386Z,33.50
2017-12-08T12:31:26.275Z,41.37
2017-12-08T12:33:55.213Z,45.33
2017-12-08T12:36:24.125Z,37.47
2017-12-08T12:38:53.007Z,72.97
2017-12-08T12:41:21.949Z,34.57
2017-12-08T12:43:50.846Z,40.13
2017-12-08T12:46:19.753Z,32.57
2017-12-08T12:48:48.655Z,36.27
2017-12-08T12:51:23.417Z,37.90
2017-12-08T12:53:52.348Z,44.17
2017-12-08T12:56:21.228Z,40.17
2017-12-08T12:58:50.121Z,36.00
2017-12-08T13:01:19.034Z,33.77
2017-12-08T13:03:47.908Z,35.30
2017-12-08T13:06:16.849Z,33.77
2017-12-08T13:08:51.837Z,33.47
2017-12-08T13:11:20.762Z,38.93
2017-12-08T13:13:49.639Z,35.23
2017-12-08T13:16:18.580Z,33.43
2017-12-08T13:18:47.468Z,37.30
2017-12-08T13:21:16.355Z,34.53
2017-12-08T13:23:45.297Z,32.23
2017-12-08T13:26:14.252Z,35.53
2017-12-08T13:28:43.141Z,33.40
2017-12-08T13:31:13.059Z,33.83
2017-12-08T13:33:41.966Z,34.43
2017-12-08T13:36:10.853Z,34.03
2017-12-08T13:38:39.787Z,36.27
2017-12-08T13:41:08.685Z,38.30
2017-12-08T13:43:37.567Z,38.03
2017-12-08T13:46:06.527Z,36.87
2017-12-08T13:48:35.415Z,39.07
2017-12-08T13:51:04.323Z,43.00
2017-12-08T13:53:39.111Z,39.27
2017-12-08T13:56:13.921Z,36.67
2017-12-08T13:58:42.819Z,35.00
2017-12-08T14:01:11.697Z,34.37
2017-12-08T14:03:40.578Z,33.77
2017-12-08T14:06:09.515Z,34.80
2017-12-08T14:08:38.397Z,33.80
2017-12-08T14:11:07.284Z,34.43
2017-12-08T14:13:36.245Z,32.27
2017-12-08T14:16:05.148Z,32.60
2017-12-08T14:18:34.065Z,35.23
2017-12-08T14:21:03.004Z,35.10
2017-12-08T14:23:31.886Z,38.87
2017-12-08T14:26:00.767Z,43.07
2017-12-08T14:28:29.675Z,44.10
2017-12-08T14:30:58.573Z,44.63
2017-12-08T14:33:27.503Z,42.47
2017-12-08T14:35:56.425Z,43.40
2017-12-08T14:38:25.315Z,40.17
2017-12-08T14:40:54.253Z,41.93
2017-12-08T14:43:23.167Z,43.07
2017-12-08T14:45:52.051Z,41.13
2017-12-08T14:48:20.975Z,43.07
2017-12-08T14:50:49.891Z,44.10
2017-12-08T14:53:18.791Z,44.20
2017-12-08T14:55:47.698Z,44.93
2017-12-08T14:58:16.604Z,42.43
2017-12-08T15:00:46.061Z,42.10
2017-12-08T15:03:14.946Z,39.40
2017-12-08T15:05:43.840Z,38.63
2017-12-08T15:08:12.731Z,35.93
2017-12-08T15:10:41.608Z,34.93
2017-12-08T15:13:10.517Z,36.07
2017-12-08T15:15:39.418Z,36.50
2017-12-08T15:18:08.297Z,36.40
2017-12-08T15:20:37.198Z,34.33
2017-12-08T15:23:06.112Z,32.93
2017-12-08T15:25:35.000Z,33.37
2017-12-08T15:28:03.929Z,35.63
2017-12-08T15:30:32.844Z,33.43
2017-12-08T15:33:01.742Z,32.87
2017-12-08T15:35:30.637Z,32.23
2017-12-08T15:37:59.530Z,33.87
2017-12-08T15:40:28.406Z,33.40
2017-12-08T15:42:57.442Z,32.10
2017-12-08T15:45:26.330Z,33.50
2017-12-08T15:47:55.228Z,33.03
2017-12-08T15:50:24.150Z,35.43
2017-12-08T15:52:53.030Z,34.20
2017-12-08T15:55:21.934Z,34.17
2017-12-08T15:57:50.858Z,34.23
2017-12-08T16:00:19.748Z,33.80
2017-12-08T16:02:48.624Z,35.13
2017-12-08T16:05:17.534Z,36.17
2017-12-08T16:07:46.427Z,33.43
2017-12-08T16:10:15.316Z,36.27
2017-12-08T16:12:44.238Z,34.97
2017-12-08T16:15:13.118Z,34.60
2017-12-08T16:17:42.005Z,34.77
2017-12-08T16:20:10.915Z,36.77
2017-12-08T16:22:39.796Z,34.30
2017-12-08T16:25:08.729Z,35.07
2017-12-08T16:27:37.653Z,36.10
2017-12-08T16:30:06.536Z,34.13
2017-12-08T16:32:35.442Z,34.53
2017-12-08T16:35:04.372Z,35.93
2017-12-08T16:37:33.248Z,36.23
2017-12-08T16:40:02.416Z,35.40
2017-12-08T16:42:31.363Z,35.40
2017-12-08T16:45:00.259Z,34.30
2017-12-08T16:47:29.147Z,34.73
2017-12-08T16:49:58.064Z,34.67
2017-12-08T16:52:26.942Z,35.13
2017-12-08T16:54:55.834Z,34.37
2017-12-08T16:57:24.762Z,35.27
2017-12-08T16:59:53.654Z,34.80
2017-12-08T17:02:22.537Z,36.60
2017-12-08T17:04:51.454Z,34.30
2017-12-08T17:07:20.325Z,36.00
2017-12-08T17:09:49.210Z,33.67
2017-12-08T17:12:18.146Z,32.00
2017-12-08T17:14:47.042Z,34.33
2017-12-08T17:17:15.940Z,31.20
2017-12-08T17:19:44.860Z,31.83
2017-12-08T17:22:13.746Z,32.77
2017-12-08T17:24:42.630Z,32.47
2017-12-08T17:27:11.590Z,34.07
2017-12-08T17:29:40.490Z,36.07
2017-12-08T17:32:09.412Z,37.33
2017-12-08T17:34:38.322Z,34.63
2017-12-08T17:37:07.196Z,32.47
2017-12-08T17:39:36.078Z,32.20
2017-12-08T17:42:04.996Z,31.97
2017-12-08T17:44:33.886Z,33.37
2017-12-08T17:47:02.788Z,34.07
2017-12-08T17:49:31.711Z,35.60
2017-12-08T17:52:00.593Z,34.70
2017-12-08T17:54:29.496Z,37.23
2017-12-08T17:56:58.445Z,34.77
2017-12-08T17:59:27.332Z,37.23
2017-12-08T18:01:56.226Z,35.47
2017-12-08T18:04:25.156Z,36.47
2017-12-08T18:06:54.040Z,38.53
2017-12-08T18:09:22.924Z,36.30
2017-12-08T18:11:51.832Z,37.20
2017-12-08T18:14:20.725Z,38.53
2017-12-08T18:16:49.604Z,36.67
2017-12-08T18:19:18.552Z,36.50
2017-12-08T18:21:47.446Z,37.87
2017-12-08T18:24:16.369Z,39.30
2017-12-08T18:26:45.292Z,38.97
2017-12-08T18:29:14.176Z,39.73
2017-12-08T18:31:43.064Z,38.73
2017-12-08T18:34:11.967Z,41.27
2017-12-08T18:36:40.872Z,40.97
2017-12-08T18:39:09.770Z,38.97
2017-12-08T18:41:38.716Z,37.40
2017-12-08T18:44:07.602Z,38.43
2017-12-08T18:46:36.482Z,40.17
2017-12-08T18:49:05.384Z,40.73
2017-12-08T18:51:34.259Z,40.03
2017-12-08T18:54:03.146Z,39.37
2017-12-08T18:56:32.731Z,41.93
2017-12-08T18:59:01.634Z,42.27
2017-12-08T19:01:31.369Z,40.03
2017-12-08T19:04:00.282Z,41.90
2017-12-08T19:06:29.170Z,41.90
2017-12-08T19:08:58.054Z,43.20
2017-12-08T19:11:26.968Z,41.23
2017-12-08T19:13:55.928Z,40.93
2017-12-08T19:16:24.815Z,40.67
2017-12-08T19:18:53.740Z,42.97
2017-12-08T19:21:22.621Z,43.20
2017-12-08T19:23:51.508Z,42.77
2017-12-08T19:26:20.414Z,44.23
2017-12-08T19:28:49.292Z,45.47
2017-12-08T19:31:18.216Z,47.57
2017-12-08T19:33:47.136Z,48.97
2017-12-08T19:36:16.015Z,49.30
2017-12-08T19:38:44.900Z,46.47
2017-12-08T19:41:13.850Z,45.73
2017-12-08T19:43:43.051Z,43.70
2017-12-08T19:46:11.938Z,45.07
2017-12-08T19:48:40.842Z,46.30
2017-12-08T19:51:09.728Z,44.70
2017-12-08T19:53:38.618Z,46.37
2017-12-08T19:56:07.520Z,44.33
2017-12-08T19:58:36.418Z,44.80
2017-12-08T20:01:05.301Z,43.03
2017-12-08T20:03:34.270Z,44.57
2017-12-08T20:06:03.172Z,40.83
2017-12-08T20:08:32.056Z,45.70
2017-12-08T20:11:00.970Z,43.13
2017-12-08T20:13:29.856Z,43.07
2017-12-08T20:15:58.740Z,43.53
2017-12-08T20:18:27.700Z,43.23
2017-12-08T20:20:56.592Z,45.10
2017-12-08T20:23:25.488Z,44.03
2017-12-08T20:25:54.485Z,45.03
2017-12-08T20:28:23.388Z,44.83
2017-12-08T20:30:52.279Z,47.00
2017-12-08T20:33:21.200Z,44.60
2017-12-08T20:35:50.088Z,44.93
2017-12-08T20:38:18.968Z,46.73
2017-12-08T20:40:47.896Z,45.37
2017-12-08T20:43:16.786Z,45.13
2017-12-08T20:45:45.687Z,43.23
2017-12-08T20:48:14.643Z,43.47
2017-12-08T20:50:43.545Z,42.47
2017-12-08T20:53:12.440Z,41.27
2017-12-08T20:55:41.342Z,45.30
2017-12-08T20:58:10.231Z,45.33
2017-12-08T21:00:39.137Z,42.43
2017-12-08T21:03:08.092Z,43.80
2017-12-08T21:05:36.978Z,42.97
2017-12-08T21:08:05.876Z,42.60
2017-12-08T21:10:34.806Z,45.03
2017-12-08T21:13:03.706Z,47.20
2017-12-08T21:15:32.596Z,52.87
2017-12-08T21:18:01.540Z,53.87
2017-12-08T21:20:30.434Z,57.83
2017-12-08T21:22:59.338Z,58.93
2017-12-08T21:25:28.256Z,52.40
2017-12-08T21:27:57.150Z,57.67
2017-12-08T21:30:26.040Z,59.10
2017-12-08T21:32:54.949Z,57.17
2017-12-08T21:35:23.867Z,58.27
2017-12-08T21:37:52.750Z,56.70
2017-12-08T21:40:21.674Z,53.60
2017-12-08T21:42:50.562Z,52.83
2017-12-08T21:45:19.476Z,55.33
2017-12-08T21:47:48.368Z,54.00
2017-12-08T21:50:17.260Z,55.23
2017-12-08T21:52:46.145Z,57.97
2017-12-08T21:55:15.050Z,62.87
2017-12-08T21:57:43.934Z,63.03
2017-12-08T22:00:12.844Z,66.13
2017-12-08T22:02:41.813Z,69.17
2017-12-08T22:05:10.676Z,68.73
2017-12-08T22:07:39.566Z,66.57
2017-12-08T22:10:08.472Z,65.33
2017-12-08T22:12:37.356Z,64.27
2017-12-08T22:15:06.242Z,64.80
2017-12-08T22:17:35.180Z,59.97
2017-12-08T22:20:04.058Z,58.03
2017-12-08T22:22:32.945Z,60.10
2017-12-08T22:25:01.848Z,60.07
2017-12-08T22:27:30.728Z,61.03
2017-12-08T22:29:59.612Z,61.80
2017-12-08T22:32:28.568Z,61.00
2017-12-08T22:34:57.497Z,64.10
2017-12-08T22:37:26.376Z,64.90
2017-12-08T22:39:55.282Z,66.97
2017-12-08T22:42:24.178Z,64.40
2017-12-08T22:44:53.055Z,65.10
2017-12-08T22:47:21.956Z,60.87
2017-12-08T22:49:50.836Z,66.07
2017-12-08T22:52:19.728Z,65.93
2017-12-08T22:54:48.672Z,61.57
2017-12-08T22:57:17.552Z,62.03
2017-12-08T22:59:46.441Z,62.40
2017-12-08T23:02:15.350Z,61.40
2017-12-08T23:04:44.254Z,60.20
2017-12-08T23:07:26.859Z,60.17
2017-12-08T23:09:55.754Z,58.27
2017-12-08T23:12:24.651Z,63.73
2017-12-08T23:14:53.597Z,57.47
2017-12-08T23:17:22.468Z,58.63
2017-12-08T23:20:12.306Z,63.20
2017-12-08T23:22:41.200Z,62.80
2017-12-08T23:25:10.094Z,65.13
2017-12-08T23:27:39.089Z,60.93
2017-12-08T23:30:07.991Z,61.93
2017-12-08T23:32:36.878Z,60.37
2017-12-08T23:35:05.838Z,62.93
2017-12-08T23:37:40.906Z,66.67
2017-12-08T23:40:09.794Z,64.33
2017-12-08T23:42:38.694Z,63.73
2017-12-08T23:45:07.610Z,64.60
2017-12-08T23:47:36.522Z,63.50
2017-12-08T23:50:05.431Z,61.07
2017-12-08T23:52:34.320Z,60.13
2017-12-08T23:55:08.972Z,59.10
2017-12-08T23:57:37.860Z,59.87
